| time (UTC) | temp F | wind direction | speed knots | gust knots | rain 1hr in | rain 24hr in | rain mn in | humidity % | barometer mb |
| 20260502152223 | 49 | 305 | 2.6 | 3.5 | 0.00 | 0.00 | 0.00 | 49 | 1016.4 |
| 20260502151721 | 48 | 295 | 1.7 | 6.1 | 0.00 | 0.00 | 0.00 | 52 | 1016.4 |
| 20260502151218 | 49 | 332 | 1.7 | 1.7 | 0.00 | 0.00 | 0.00 | 47 | 1016.6 |
| 20260502150715 | 48 | 329 | 1.7 | 5.2 | 0.00 | 0.00 | 0.00 | 50 | 1016.5 |
| 20260502150211 | 48 | 279 | 3.5 | 5.2 | 0.00 | 0.00 | 0.00 | 54 | 1016.6 |
| 20260502130601 | 42 | 293 | 0.9 | 1.7 | 0.00 | 0.00 | 0.00 | 74 | 1016.7 |
| 20260502123543 | 41 | 292 | 0.9 | 0.9 | 0.00 | 0.00 | 0.00 | 78 | 1016.5 |
| 20260502123039 | 41 | 292 | 0.0 | 0.9 | 0.00 | 0.00 | 0.00 | 78 | 1016.5 |
| 20260502122536 | 41 | 292 | 0.9 | 0.9 | 0.00 | 0.00 | 0.00 | 78 | 1016.7 |
| 20260502122034 | 41 | 292 | 0.9 | 0.9 | 0.00 | 0.00 | 0.00 | 82 | 1016.6 |
| 20260502121531 | 41 | 292 | 0.9 | 0.9 | 0.00 | 0.00 | 0.00 | 80 | 1016.6 |
| 20260502121028 | 40 | 292 | 0.9 | 0.9 | 0.00 | 0.00 | 0.00 | 82 | 1016.6 |
| 20260502120524 | 40 | 292 | 0.0 | 0.0 | 0.00 | 0.00 | 0.00 | 84 | 1016.3 |
| 20260502115519 | 39 | 292 | 0.0 | 0.0 | 0.00 | 0.00 | 0.00 | 84 | 1016.6 |
| 20260502115015 | 38 | 292 | 0.0 | 0.0 | 0.00 | 0.00 | 0.00 | 86 | 1016.8 |
| 20260502114512 | 38 | 292 | 0.0 | 0.0 | 0.00 | 0.00 | 0.00 | 89 | 1016.5 |
| 20260502114009 | 38 | 292 | 0.0 | 0.0 | 0.00 | 0.00 | 0.00 | 87 | 1016.5 |
| 20260502113506 | 37 | 292 | 0.0 | 0.0 | 0.00 | 0.00 | 0.00 | 89 | 1016.4 |
| 20260502113005 | 37 | 292 | 0.0 | 0.0 | 0.00 | 0.00 | 0.00 | 88 | 1016.4 |
| 20260502112502 | 37 | 292 | 0.0 | 0.0 | 0.00 | 0.00 | 0.00 | 89 | 1016.4 |
| 20260502112000 | 37 | 292 | 0.0 | 0.0 | 0.00 | 0.00 | 0.00 | 89 | 1016.3 |
| 20260502111457 | 37 | 292 | 0.0 | 0.0 | 0.00 | 0.00 | 0.00 | 89 | 1016.3 |
| 20260502110954 | 37 | 292 | 0.0 | 0.0 | 0.00 | 0.00 | 0.00 | 89 | 1016.4 |
| 20260502110451 | 37 | 292 | 0.0 | 0.0 | 0.00 | 0.00 | 0.00 | 90 | 1016.4 |
| 20260502105948 | 37 | 292 | 0.0 | 0.0 | 0.00 | 0.00 | 0.00 | 90 | 1016.3 |
| 20260502105446 | 37 | 292 | 0.0 | 0.0 | 0.00 | 0.00 | 0.00 | 89 | 1016.1 |
| 20260502104944 | 37 | 292 | 0.0 | 0.0 | 0.00 | 0.00 | 0.00 | 89 | 1015.8 |
| 20260502104440 | 37 | 292 | 0.0 | 0.0 | 0.00 | 0.00 | 0.00 | 88 | 1016.1 |
| 20260502103938 | 37 | 292 | 0.0 | 0.0 | 0.00 | 0.00 | 0.00 | 87 | 1016.4 |
| 20260502103435 | 37 | 292 | 0.0 | 0.0 | 0.00 | 0.00 | 0.00 | 87 | 1016.5 |
| 20260502102932 | 37 | 292 | 0.0 | 0.0 | 0.00 | 0.00 | 0.00 | 88 | 1016.4 |
| 20260502102429 | 37 | 292 | 0.0 | 0.0 | 0.00 | 0.00 | 0.00 | 88 | 1016.3 |
| 20260502101926 | 37 | 292 | 0.0 | 0.0 | 0.00 | 0.00 | 0.00 | 88 | 1016.4 |
| 20260502101425 | 37 | 292 | 0.0 | 0.0 | 0.00 | 0.00 | 0.00 | 88 | 1016.4 |
| 20260502100922 | 37 | 292 | 0.0 | 0.0 | 0.00 | 0.00 | 0.00 | 88 | 1016.5 |
| 20260502100422 | 38 | 292 | 0.0 | 0.0 | 0.00 | 0.00 | 0.00 | 87 | 1016.4 |
| 20260502091355 | 40 | 292 | 0.0 | 0.0 | 0.00 | 0.00 | 0.00 | 81 | 1016.4 |
| 20260502090853 | 41 | 292 | 0.0 | 0.0 | 0.00 | 0.00 | 0.00 | 80 | 1016.4 |
| 20260502090349 | 41 | 292 | 0.0 | 0.9 | 0.00 | 0.00 | 0.00 | 79 | 1016.2 |
| 20260502071244 | 44 | 284 | 0.9 | 0.9 | 0.00 | 0.00 | 0.00 | 71 | 1016.2 |
| 20260502070743 | 44 | 284 | 1.7 | 2.6 | 0.00 | 0.00 | 0.00 | 69 | 1016.3 |
| 20260502070240 | 44 | 284 | 0.0 | 0.9 | 0.00 | 0.00 | 0.00 | 71 | 1016.2 |
| 20260502065738 | 44 | 284 | 0.0 | 0.9 | 0.00 | 0.00 | 0.00 | 72 | 1016.4 |
| 20260502065236 | 44 | 284 | 0.0 | 0.9 | 0.00 | 0.00 | 0.00 | 70 | 1016.1 |
| 20260502064734 | 44 | 284 | 0.0 | 1.7 | 0.00 | 0.00 | 0.00 | 69 | 1015.9 |
| 20260502064232 | 44 | 284 | 0.9 | 1.7 | 0.00 | 0.00 | 0.00 | 70 | 1016.2 |
| 20260502063729 | 44 | 284 | 0.9 | 2.6 | 0.00 | 0.00 | 0.00 | 71 | 1016.3 |
| 20260502063227 | 45 | 282 | 0.0 | 0.9 | 0.00 | 0.00 | 0.00 | 71 | 1016.4 |
| 20260502062723 | 45 | 283 | 0.0 | 0.9 | 0.00 | 0.00 | 0.00 | 72 | 1016.3 |
| 20260502062221 | 45 | 283 | 0.0 | 0.0 | 0.00 | 0.00 | 0.00 | 71 | 1016.3 |
| 20260502061720 | 45 | 283 | 0.0 | 0.9 | 0.00 | 0.00 | 0.00 | 71 | 1016.5 |
| 20260502061217 | 45 | 283 | 1.7 | 1.7 | 0.00 | 0.00 | 0.00 | 70 | 1016.6 |
| 20260502060712 | 45 | 282 | 0.0 | 0.9 | 0.00 | 0.00 | 0.00 | 73 | 1016.5 |
| 20260502060208 | 45 | 282 | 0.9 | 2.6 | 0.00 | 0.00 | 0.00 | 72 | 1016.5 |
| 20260502055706 | 45 | 282 | 1.7 | 2.6 | 0.00 | 0.00 | 0.00 | 74 | 1016.3 |
| 20260502055204 | 46 | 282 | 0.9 | 0.9 | 0.00 | 0.00 | 0.00 | 75 | 1016.5 |
| 20260502054703 | 46 | 282 | 0.9 | 1.7 | 0.00 | 0.00 | 0.00 | 75 | 1016.5 |
| 20260502054200 | 46 | 282 | 0.9 | 1.7 | 0.00 | 0.00 | 0.00 | 75 | 1016.5 |
| 20260502053657 | 46 | 282 | 0.9 | 1.7 | 0.00 | 0.00 | 0.00 | 75 | 1016.6 |
| 20260502053154 | 46 | 280 | 0.9 | 1.7 | 0.00 | 0.00 | 0.00 | 75 | 1016.5 |
| 20260502052652 | 46 | 279 | 0.0 | 3.5 | 0.00 | 0.00 | 0.00 | 76 | 1016.6 |
| 20260502052150 | 46 | 294 | 0.9 | 3.5 | 0.00 | 0.00 | 0.00 | 75 | 1016.7 |
| 20260502051648 | 46 | 287 | 0.9 | 1.7 | 0.00 | 0.00 | 0.00 | 78 | 1016.6 |
| 20260502051146 | 46 | 284 | 2.6 | 2.6 | 0.00 | 0.00 | 0.00 | 77 | 1016.6 |
| 20260502050642 | 46 | 284 | 0.0 | 2.6 | 0.00 | 0.00 | 0.00 | 77 | 1016.5 |
| 20260502050139 | 47 | 283 | 0.9 | 2.6 | 0.00 | 0.00 | 0.00 | 76 | 1016.6 |
| 20260502045635 | 47 | 283 | 0.9 | 2.6 | 0.00 | 0.00 | 0.00 | 76 | 1016.6 |
| 20260502045133 | 47 | 283 | 0.9 | 1.7 | 0.00 | 0.00 | 0.00 | 76 | 1016.6 |
| 20260502044629 | 47 | 283 | 0.9 | 1.7 | 0.00 | 0.00 | 0.00 | 75 | 1016.6 |
| 20260502044126 | 47 | 283 | 0.0 | 0.0 | 0.00 | 0.00 | 0.00 | 76 | 1016.6 |
| 20260502043624 | 47 | 283 | 0.9 | 1.7 | 0.00 | 0.00 | 0.00 | 75 | 1016.6 |
| 20260502043120 | 47 | 283 | 0.9 | 2.6 | 0.00 | 0.00 | 0.00 | 74 | 1016.7 |
| 20260502042614 | 47 | 283 | 0.0 | 0.0 | 0.00 | 0.00 | 0.00 | 74 | 1017.0 |
| 20260502042112 | 47 | 283 | 0.9 | 1.7 | 0.00 | 0.00 | 0.00 | 74 | 1016.7 |
| 20260502041610 | 47 | 282 | 1.7 | 1.7 | 0.00 | 0.00 | 0.00 | 72 | 1016.7 |
| 20260502041106 | 47 | 277 | 0.9 | 1.7 | 0.00 | 0.00 | 0.00 | 73 | 1016.8 |
| 20260502040603 | 47 | 274 | 0.9 | 3.5 | 0.00 | 0.00 | 0.00 | 72 | 1016.6 |
| 20260502040101 | 47 | 275 | 0.0 | 0.9 | 0.00 | 0.00 | 0.00 | 71 | 1016.6 |
| 20260502035556 | 47 | 276 | 0.0 | 0.9 | 0.00 | 0.00 | 0.00 | 72 | 1016.8 |
| 20260502035054 | 48 | 274 | 0.9 | 2.6 | 0.00 | 0.00 | 0.00 | 72 | 1016.8 |
| 20260502034551 | 48 | 266 | 1.7 | 1.7 | 0.00 | 0.00 | 0.00 | 71 | 1017.0 |
| 20260502034049 | 48 | 266 | 0.9 | 0.9 | 0.00 | 0.00 | 0.00 | 71 | 1016.7 |
| 20260502033548 | 48 | 266 | 0.0 | 0.0 | 0.00 | 0.00 | 0.00 | 72 | 1016.8 |
| 20260502033044 | 48 | 266 | 0.0 | 0.0 | 0.00 | 0.00 | 0.00 | 73 | 1016.9 |
| 20260502032540 | 48 | 266 | 0.0 | 0.9 | 0.00 | 0.00 | 0.00 | 73 | 1016.9 |
| 20260502032037 | 48 | 266 | 0.0 | 1.7 | 0.00 | 0.00 | 0.00 | 71 | 1016.9 |
| 20260502031535 | 48 | 266 | 0.0 | 3.5 | 0.00 | 0.00 | 0.00 | 71 | 1016.9 |
| 20260502031033 | 49 | 283 | 2.6 | 3.5 | 0.00 | 0.00 | 0.00 | 71 | 1016.8 |
| 20260502030531 | 49 | 286 | 0.0 | 0.9 | 0.00 | 0.00 | 0.00 | 73 | 1016.8 |
| 20260502030029 | 49 | 286 | 0.0 | 0.9 | 0.00 | 0.00 | 0.00 | 73 | 1016.7 |
| 20260502025526 | 49 | 286 | 0.9 | 0.9 | 0.00 | 0.00 | 0.00 | 73 | 1016.7 |
| 20260502025024 | 49 | 286 | 0.9 | 1.7 | 0.00 | 0.00 | 0.00 | 74 | 1016.5 |
| 20260502024521 | 49 | 286 | 0.9 | 1.7 | 0.00 | 0.00 | 0.00 | 72 | 1016.4 |
| 20260502024020 | 49 | 286 | 0.9 | 1.7 | 0.00 | 0.00 | 0.00 | 72 | 1016.4 |
| 20260502023517 | 49 | 286 | 1.7 | 1.7 | 0.00 | 0.00 | 0.00 | 73 | 1016.3 |
| 20260502023014 | 49 | 285 | 0.0 | 1.7 | 0.00 | 0.00 | 0.00 | 74 | 1016.3 |
| 20260502022510 | 49 | 285 | 0.0 | 0.9 | 0.00 | 0.00 | 0.00 | 75 | 1016.3 |
| 20260502022008 | 49 | 285 | 0.0 | 0.9 | 0.00 | 0.00 | 0.00 | 75 | 1016.3 |
| 20260502021505 | 49 | 285 | 0.0 | 0.9 | 0.00 | 0.00 | 0.00 | 76 | 1015.9 |
| 20260502021002 | 49 | 285 | 1.7 | 2.6 | 0.00 | 0.00 | 0.00 | 76 | 1015.8 |
| 20260502020500 | 50 | 285 | 0.0 | 0.9 | 0.00 | 0.00 | 0.00 | 75 | 1015.6 |
| 20260502015956 | 50 | 285 | 0.9 | 1.7 | 0.00 | 0.00 | 0.00 | 75 | 1015.5 |
| 20260502015454 | 50 | 285 | 0.0 | 0.0 | 0.00 | 0.00 | 0.00 | 74 | 1015.6 |
| 20260502014950 | 51 | 285 | 0.0 | 2.6 | 0.00 | 0.00 | 0.00 | 74 | 1015.6 |
| 20260502014447 | 51 | 285 | 0.0 | 0.9 | 0.00 | 0.00 | 0.00 | 73 | 1015.5 |
| 20260502013944 | 51 | 285 | 0.9 | 0.9 | 0.00 | 0.00 | 0.00 | 73 | 1015.4 |
| 20260502013439 | 51 | 285 | 0.0 | 0.0 | 0.00 | 0.00 | 0.00 | 72 | 1015.4 |
| 20260502012936 | 51 | 291 | 0.0 | 0.0 | 0.00 | 0.00 | 0.00 | 72 | 1015.4 |
| 20260502012434 | 51 | 291 | 0.0 | 0.9 | 0.00 | 0.00 | 0.00 | 71 | 1015.2 |
| 20260502011931 | 51 | 291 | 0.9 | 1.7 | 0.00 | 0.00 | 0.00 | 70 | 1015.2 |
| 20260502011427 | 51 | 292 | 1.7 | 2.6 | 0.00 | 0.00 | 0.00 | 69 | 1014.9 |
| 20260502010924 | 51 | 285 | 2.6 | 3.5 | 0.00 | 0.00 | 0.00 | 69 | 1014.8 |
| 20260502010421 | 52 | 288 | 1.7 | 2.6 | 0.00 | 0.00 | 0.00 | 68 | 1014.7 |
| 20260502005917 | 52 | 309 | 1.7 | 5.2 | 0.00 | 0.00 | 0.00 | 68 | 1014.4 |
| 20260502005415 | 52 | 298 | 1.7 | 2.6 | 0.00 | 0.00 | 0.00 | 66 | 1014.4 |
| 20260502004913 | 53 | 309 | 1.7 | 2.6 | 0.00 | 0.00 | 0.00 | 65 | 1014.2 |
| 20260502004409 | 53 | 307 | 3.5 | 5.2 | 0.00 | 0.00 | 0.00 | 63 | 1014.1 |
| 20260502003906 | 53 | 303 | 0.0 | 2.6 | 0.00 | 0.00 | 0.00 | 64 | 1013.9 |
| 20260502003403 | 54 | 297 | 0.9 | 3.5 | 0.00 | 0.00 | 0.00 | 62 | 1013.6 |
| 20260502002859 | 54 | 306 | 1.7 | 2.6 | 0.00 | 0.00 | 0.00 | 60 | 1013.9 |
| 20260502002357 | 55 | 299 | 1.7 | 3.5 | 0.00 | 0.00 | 0.00 | 58 | 1013.5 |
| 20260502001854 | 55 | 298 | 1.7 | 2.6 | 0.00 | 0.00 | 0.00 | 56 | 1013.5 |
| 20260502001352 | 55 | 305 | 2.6 | 3.5 | 0.00 | 0.00 | 0.00 | 54 | 1013.3 |
| 20260502000849 | 56 | 299 | 0.9 | 6.1 | 0.00 | 0.00 | 0.00 | 54 | 1013.1 |
| 20260502000347 | 57 | 330 | 0.9 | 5.2 | 0.00 | 0.00 | 0.00 | 50 | 1013.1 |
| 20260501235843 | 58 | 301 | 2.6 | 3.5 | 0.00 | 0.00 | 0.00 | 48 | 1012.7 |
| 20260501235339 | 60 | 298 | 0.9 | 1.7 | 0.00 | 0.00 | 0.00 | 43 | 1012.6 |
| 20260501234834 | 60 | 298 | 1.7 | 2.6 | 0.00 | 0.00 | 0.00 | 39 | 1012.3 |
| 20260501234332 | 61 | 295 | 1.7 | 2.6 | 0.00 | 0.00 | 0.00 | 38 | 1012.2 |
| 20260501233830 | 61 | 315 | 1.7 | 3.5 | 0.00 | 0.00 | 0.00 | 39 | 1012.2 |
| 20260501233327 | 61 | 288 | 1.7 | 3.5 | 0.00 | 0.00 | 0.00 | 40 | 1012.3 |
| 20260501232823 | 62 | 282 | 2.6 | 5.2 | 0.00 | 0.00 | 0.00 | 36 | 1012.0 |
| 20260501232320 | 62 | 313 | 1.7 | 2.6 | 0.00 | 0.00 | 0.00 | 35 | 1012.1 |
| 20260501231818 | 61 | 298 | 1.7 | 2.6 | 0.00 | 0.00 | 0.00 | 40 | 1012.2 |
| 20260501231315 | 61 | 281 | 3.5 | 3.5 | 0.00 | 0.00 | 0.00 | 36 | 1012.3 |
| 20260501230814 | 61 | 287 | 3.5 | 3.5 | 0.00 | 0.00 | 0.00 | 36 | 1012.1 |
| 20260501230312 | 62 | 303 | 1.7 | 3.5 | 0.00 | 0.00 | 0.00 | 38 | 1012.0 |
| 20260501225809 | 62 | 325 | 1.7 | 7.0 | 0.00 | 0.00 | 0.00 | 34 | 1012.3 |
| 20260501225307 | 62 | 284 | 1.7 | 3.5 | 0.00 | 0.00 | 0.00 | 38 | 1012.1 |
| 20260501224803 | 63 | 292 | 1.7 | 3.5 | 0.00 | 0.00 | 0.00 | 35 | 1012.1 |
| 20260501224300 | 65 | 296 | 1.7 | 5.2 | 0.00 | 0.00 | 0.00 | 35 | 1012.3 |
| 20260501223756 | 65 | 312 | 2.6 | 3.5 | 0.00 | 0.00 | 0.00 | 34 | 1012.2 |
| 20260501223253 | 64 | 300 | 1.7 | 6.1 | 0.00 | 0.00 | 0.00 | 34 | 1012.3 |
| 20260501222749 | 65 | 293 | 0.9 | 2.6 | 0.00 | 0.00 | 0.00 | 34 | 1012.0 |
| 20260501222246 | 65 | 306 | 0.9 | 2.6 | 0.00 | 0.00 | 0.00 | 32 | 1012.4 |
| 20260501221743 | 66 | 319 | 3.5 | 7.8 | 0.00 | 0.00 | 0.00 | 32 | 1012.2 |
| 20260501221240 | 67 | 312 | 0.9 | 5.2 | 0.00 | 0.00 | 0.00 | 32 | 1012.3 |
| 20260501220738 | 66 | 296 | 3.5 | 7.0 | 0.00 | 0.00 | 0.00 | 33 | 1012.2 |
| 20260501220235 | 66 | 261 | 5.2 | 7.0 | 0.00 | 0.00 | 0.00 | 31 | 1012.2 |
| 20260501215732 | 63 | 340 | 1.7 | 3.5 | 0.00 | 0.00 | 0.00 | 34 | 1012.3 |
| 20260501215227 | 64 | 299 | 1.7 | 3.5 | 0.00 | 0.00 | 0.00 | 32 | 1012.2 |
| 20260501214722 | 65 | 291 | 2.6 | 7.0 | 0.00 | 0.00 | 0.00 | 34 | 1012.2 |
| 20260501214219 | 65 | 287 | 2.6 | 3.5 | 0.00 | 0.00 | 0.00 | 30 | 1012.1 |
| 20260501213715 | 66 | 293 | 0.9 | 3.5 | 0.00 | 0.00 | 0.00 | 32 | 1012.0 |
| 20260501213211 | 68 | 317 | 3.5 | 6.1 | 0.00 | 0.00 | 0.00 | 30 | 1012.1 |
| 20260501212708 | 67 | 278 | 0.9 | 3.5 | 0.00 | 0.00 | 0.00 | 29 | 1012.1 |
| 20260501212204 | 68 | 279 | 1.7 | 2.6 | 0.00 | 0.00 | 0.00 | 31 | 1012.0 |
| 20260501211701 | 65 | 332 | 0.0 | 1.7 | 0.00 | 0.00 | 0.00 | 33 | 1012.0 |
| 20260501211158 | 64 | 355 | 0.0 | 1.7 | 0.00 | 0.00 | 0.00 | 32 | 1012.4 |
| 20260501210655 | 64 | 310 | 1.7 | 2.6 | 0.00 | 0.00 | 0.00 | 30 | 1011.9 |
| 20260501210152 | 64 | 278 | 0.0 | 3.5 | 0.00 | 0.00 | 0.00 | 34 | 1012.1 |
| 20260501205648 | 64 | 297 | 1.7 | 1.7 | 0.00 | 0.00 | 0.00 | 30 | 1012.1 |
| 20260501205146 | 64 | 168 | 1.7 | 2.6 | 0.00 | 0.00 | 0.00 | 28 | 1012.2 |
| 20260501204642 | 64 | 278 | 3.5 | 3.5 | 0.00 | 0.00 | 0.00 | 26 | 1012.1 |
| 20260501204138 | 64 | 32 | 1.7 | 3.5 | 0.00 | 0.00 | 0.00 | 29 | 1012.1 |
| 20260501203635 | 65 | 303 | 2.6 | 3.5 | 0.00 | 0.00 | 0.00 | 26 | 1012.1 |
| 20260501203133 | 66 | 93 | 0.0 | 1.7 | 0.00 | 0.00 | 0.00 | 27 | 1011.9 |
| 20260501202629 | 65 | 16 | 0.9 | 3.5 | 0.00 | 0.00 | 0.00 | 27 | 1011.9 |
| 20260501202126 | 65 | 350 | 3.5 | 5.2 | 0.00 | 0.00 | 0.00 | 26 | 1012.2 |
| 20260501201623 | 65 | 280 | 2.6 | 3.5 | 0.00 | 0.00 | 0.00 | 32 | 1012.3 |
| 20260501201119 | 66 | 287 | 2.6 | 3.5 | 0.00 | 0.00 | 0.00 | 32 | 1012.2 |
| 20260501200617 | 68 | 298 | 1.7 | 6.1 | 0.00 | 0.00 | 0.00 | 28 | 1012.2 |
| 20260501200114 | 68 | 91 | 2.6 | 3.5 | 0.00 | 0.00 | 0.00 | 30 | 1012.2 |
| 20260501195612 | 69 | 282 | 1.7 | 3.5 | 0.00 | 0.00 | 0.00 | 33 | 1012.1 |
| 20260501195107 | 68 | 299 | 0.9 | 5.2 | 0.00 | 0.00 | 0.00 | 31 | 1012.3 |
| 20260501194603 | 67 | 312 | 0.9 | 7.8 | 0.00 | 0.00 | 0.00 | 31 | 1012.5 |
| 20260501194058 | 67 | 119 | 1.7 | 7.0 | 0.00 | 0.00 | 0.00 | 30 | 1012.6 |
| 20260501193556 | 66 | 85 | 2.6 | 6.1 | 0.00 | 0.00 | 0.00 | 28 | 1012.6 |
| 20260501193055 | 66 | 283 | 1.7 | 5.2 | 0.00 | 0.00 | 0.00 | 31 | 1012.7 |
| 20260501192551 | 66 | 328 | 2.6 | 6.1 | 0.00 | 0.00 | 0.00 | 32 | 1012.7 |
| 20260501192049 | 65 | 276 | 4.3 | 6.1 | 0.00 | 0.00 | 0.00 | 33 | 1012.8 |
| 20260501191545 | 66 | 50 | 2.6 | 7.0 | 0.00 | 0.00 | 0.00 | 31 | 1013.1 |
| 20260501191043 | 67 | 137 | 4.3 | 7.8 | 0.00 | 0.00 | 0.00 | 29 | 1013.3 |
| 20260501190538 | 66 | 0 | 0.9 | 6.1 | 0.00 | 0.00 | 0.00 | 31 | 1013.3 |
| 20260501190034 | 66 | 234 | 1.7 | 6.1 | 0.00 | 0.00 | 0.00 | 31 | 1013.5 |
| 20260501185530 | 67 | 301 | 1.7 | 7.0 | 0.00 | 0.00 | 0.00 | 34 | 1013.5 |
| 20260501185026 | 65 | 18 | 0.9 | 7.0 | 0.00 | 0.00 | 0.00 | 31 | 1013.5 |
| 20260501184523 | 65 | 81 | 1.7 | 2.6 | 0.00 | 0.00 | 0.00 | 31 | 1013.4 |
| 20260501184023 | 65 | 267 | 1.7 | 3.5 | 0.00 | 0.00 | 0.00 | 31 | 1013.6 |
| 20260501183520 | 65 | 328 | 3.5 | 5.2 | 0.00 | 0.00 | 0.00 | 34 | 1013.8 |
| 20260501183016 | 64 | 289 | 2.6 | 3.5 | 0.00 | 0.00 | 0.00 | 32 | 1013.6 |
| 20260501182513 | 64 | 56 | 6.1 | 7.0 | 0.00 | 0.00 | 0.00 | 31 | 1013.9 |
| 20260501182010 | 65 | 294 | 0.9 | 3.5 | 0.00 | 0.00 | 0.00 | 29 | 1013.8 |
| 20260501181508 | 65 | 325 | 1.7 | 3.5 | 0.00 | 0.00 | 0.00 | 32 | 1013.7 |
| 20260501181004 | 65 | 294 | 1.7 | 3.5 | 0.00 | 0.00 | 0.00 | 33 | 1014.0 |
| 20260501180502 | 65 | 301 | 1.7 | 2.6 | 0.00 | 0.00 | 0.00 | 32 | 1014.0 |
| 20260501175957 | 64 | 313 | 3.5 | 5.2 | 0.00 | 0.00 | 0.00 | 31 | 1014.0 |
| 20260501175455 | 64 | 318 | 1.7 | 3.5 | 0.00 | 0.00 | 0.00 | 30 | 1014.1 |
| 20260501174951 | 65 | 317 | 3.5 | 3.5 | 0.00 | 0.00 | 0.00 | 32 | 1014.1 |
| 20260501174449 | 64 | 27 | 2.6 | 5.2 | 0.00 | 0.00 | 0.00 | 29 | 1014.2 |
| 20260501173946 | 64 | 279 | 1.7 | 3.5 | 0.00 | 0.00 | 0.00 | 31 | 1014.2 |
| 20260501173444 | 65 | 182 | 0.0 | 1.7 | 0.00 | 0.00 | 0.00 | 29 | 1014.0 |
| 20260501172939 | 64 | 102 | 2.6 | 5.2 | 0.00 | 0.00 | 0.00 | 33 | 1014.2 |
| 20260501172435 | 63 | 46 | 1.7 | 5.2 | 0.00 | 0.00 | 0.00 | 31 | 1014.2 |
| 20260501171931 | 63 | 277 | 2.6 | 6.1 | 0.00 | 0.00 | 0.00 | 35 | 1014.2 |
| 20260501171427 | 64 | 316 | 2.6 | 3.5 | 0.00 | 0.00 | 0.00 | 34 | 1014.2 |
| 20260501170924 | 63 | 251 | 0.9 | 1.7 | 0.00 | 0.00 | 0.00 | 32 | 1014.3 |
| 20260501170421 | 61 | 277 | 4.3 | 7.0 | 0.00 | 0.00 | 0.00 | 38 | 1014.4 |
| 20260501165919 | 62 | 113 | 1.7 | 6.1 | 0.00 | 0.00 | 0.00 | 36 | 1014.6 |
| 20260501165416 | 61 | 244 | 1.7 | 3.5 | 0.00 | 0.00 | 0.00 | 36 | 1014.6 |
| 20260501164914 | 60 | 67 | 3.5 | 5.2 | 0.00 | 0.00 | 0.00 | 36 | 1014.6 |
| 20260501164411 | 61 | 266 | 1.7 | 3.5 | 0.00 | 0.00 | 0.00 | 39 | 1014.6 |
| 20260501163908 | 60 | 259 | 3.5 | 7.8 | 0.00 | 0.00 | 0.00 | 40 | 1014.7 |
| 20260501163404 | 62 | 260 | 5.2 | 7.0 | 0.00 | 0.00 | 0.00 | 37 | 1014.4 |
| 20260501162901 | 61 | 234 | 4.3 | 7.0 | 0.00 | 0.00 | 0.00 | 38 | 1014.6 |
| 20260501162357 | 61 | 324 | 0.9 | 1.7 | 0.00 | 0.00 | 0.00 | 40 | 1014.9 |
| 20260501161854 | 60 | 287 | 1.7 | 5.2 | 0.00 | 0.00 | 0.00 | 38 | 1014.9 |
| 20260501161351 | 61 | 202 | 0.0 | 3.5 | 0.00 | 0.00 | 0.00 | 38 | 1015.0 |
| 20260501160848 | 61 | 262 | 3.5 | 6.1 | 0.00 | 0.00 | 0.00 | 36 | 1015.0 |
| 20260501160344 | 58 | 177 | 1.7 | 3.5 | 0.00 | 0.00 | 0.00 | 38 | 1015.3 |
| 20260501155842 | 59 | 256 | 4.3 | 6.1 | 0.00 | 0.00 | 0.00 | 36 | 1015.3 |
| 20260501155338 | 58 | 13 | 1.7 | 5.2 | 0.00 | 0.00 | 0.00 | 44 | 1015.5 |